Dades meteomassalio
Diari Summary for Febrer 14, 2018 Units:  Metric    English   Both
« Previous Day
Next Day »
Diari Semanal Mensual Anual Personalitzat
  Maxima: Minima: Mijana:
Temperatura: -17.8 °C -15.3 °C -12.4 °C
Rosada: -17.8 °C -17.3 °C -14.8 °C
Humitat: Humidity % 60 % 74 %
Velocitat del vent: 0 km/h 0 km/h 19.2 km/h
Racha vent: 0 km/h - -
Vent:- - WNW
Pressio: 0 hPa 34496.6 hPa -
Pluja: 7.62 mm    
Historical Graphs
 
 
Tabular Data for Febrer 14, 2018
Time Temperature Dew Point Pressure Wind Wind Speed Wind Gust Humidity Rainfall Rate (Hourly) solar Conditions
-17.8 °C -17.8 °C 0 hPa Calm     Humidity % 0 mm SolarRadiationWatts/m^2 W/m2 Conditions
00:03 -14.4 °C -16.6 °C 34510.1 hPa NW 20.9 km/h 20.9 km/h 76 % 0 mm 0.0 W/m2 CLR
00:08 -14.4 °C -16.6 °C 34520.3 hPa NNW 26.9 km/h 26.9 km/h 76 % 0 mm 0.0 W/m2 CLR
00:13 -14.4 °C -16.6 °C 34520.3 hPa NNW 26.9 km/h 26.9 km/h 76 % 0 mm 0.0 W/m2 CLR
00:18 -14.4 °C -16.4 °C 34520.3 hPa NNW 26.9 km/h 26.9 km/h 77 % 0 mm 0.0 W/m2 CLR
00:23 -14.4 °C -16.4 °C 34520.3 hPa NNW 26.9 km/h 26.9 km/h 77 % 0 mm 0.0 W/m2 CLR
00:28 -14.7 °C -16.8 °C 34520.3 hPa NNW 17.9 km/h 17.9 km/h 77 % 0 mm 0.0 W/m2 CLR
00:34 -14.7 °C -16.8 °C 34520.3 hPa NNW 26.9 km/h 26.9 km/h 77 % 0 mm 0.0 W/m2 CLR
00:39 -14.7 °C -16.8 °C 34533.8 hPa NNW 26.9 km/h 26.9 km/h 77 % 0 mm 0.0 W/m2 CLR
00:44 -14.7 °C -16.7 °C 34520.3 hPa NNW 20.9 km/h 20.9 km/h 78 % 0 mm 0.0 W/m2 CLR
00:49 -15 °C -17.1 °C 34520.3 hPa NW 23.8 km/h 23.8 km/h 77 % 0 mm 0.0 W/m2 CLR
00:54 -15 °C -17.1 °C 34520.3 hPa NW 11.9 km/h 11.9 km/h 77 % 0 mm 0.0 W/m2 CLR
00:59 -15 °C -16.9 °C 34520.3 hPa WNW 17.9 km/h 17.9 km/h 78 % 0 mm 0.0 W/m2 CLR
01:04 -15 °C -16.9 °C 34520.3 hPa NW 20.9 km/h 20.9 km/h 78 % 0 mm 0.0 W/m2 CLR
01:09 -15 °C -17.1 °C 34520.3 hPa NW 26.9 km/h 26.9 km/h 77 % 0 mm 0.0 W/m2 CLR
01:14 -15 °C -17.1 °C 34520.3 hPa NW 23.8 km/h 23.8 km/h 77 % 0 mm 0.0 W/m2 CLR
01:19 -15.3 °C -17.3 °C 34520.3 hPa NW 20.9 km/h 20.9 km/h 77 % 0 mm 0.0 W/m2 CLR
01:24 -15.3 °C -17.3 °C 34520.3 hPa NW 17.9 km/h 17.9 km/h 78 % 0 mm 0.0 W/m2 CLR
01:29 -15.3 °C -17.3 °C 34520.3 hPa NW 20.8 km/h 20.8 km/h 78 % 0 mm 0.0 W/m2 CLR
01:34 -15.3 °C -17.3 °C 34533.8 hPa NW 23.8 km/h 23.8 km/h 77 % 0 mm 0.0 W/m2 CLR
01:39 -15 °C -17.1 °C 34533.8 hPa NW 23.8 km/h 23.8 km/h 77 % 0 mm 0.0 W/m2 CLR
01:44 -15 °C -17.1 °C 34533.8 hPa NW 20.9 km/h 20.9 km/h 77 % 0 mm 0.0 W/m2 CLR
01:49 -14.7 °C -16.8 °C 34533.8 hPa NW 20.9 km/h 20.9 km/h 77 % 0 mm 0.0 W/m2 CLR
01:54 -14.7 °C -16.8 °C 34520.3 hPa NW 18.2 km/h 18.2 km/h 77 % 0 mm 0.0 W/m2 CLR
01:59 -14.4 °C -16.4 °C 34520.3 hPa NW 18.2 km/h 18.2 km/h 77 % 0 mm 0.0 W/m2 CLR
02:04 -14.4 °C -16.4 °C 34520.3 hPa WNW 23.8 km/h 23.8 km/h 77 % 0 mm 0.0 W/m2 CLR
02:09 -14.4 °C -16.4 °C 34520.3 hPa WNW 20.9 km/h 20.9 km/h 77 % 0 mm 0.0 W/m2 CLR
02:14 -14.4 °C -16.4 °C 34520.3 hPa NW 20.9 km/h 20.9 km/h 77 % 0 mm 0.0 W/m2 CLR
02:19 -14.4 °C -16.6 °C 34520.3 hPa NW 17.9 km/h 17.9 km/h 76 % 0 mm 0.0 W/m2 CLR
02:24 -14.7 °C -16.8 °C 34520.3 hPa WNW 23.8 km/h 23.8 km/h 77 % 0 mm 0.0 W/m2 CLR
02:29 -14.7 °C -16.8 °C 34520.3 hPa NW 20.9 km/h 20.9 km/h 76 % 0 mm 0.0 W/m2 CLR
02:34 -14.7 °C -16.8 °C 34520.3 hPa NW 25.9 km/h 25.9 km/h 77 % 0 mm 0.0 W/m2 CLR
02:39 -14.4 °C -16.4 °C 34520.3 hPa NW 29.8 km/h 29.8 km/h 77 % 0 mm 0.0 W/m2 CLR
02:44 -14.4 °C -16.4 °C 34520.3 hPa NW 20.9 km/h 20.9 km/h 77 % 0 mm 0.0 W/m2 CLR
02:49 -14.4 °C -16.4 °C 34520.3 hPa NW 29.8 km/h 29.8 km/h 77 % 0 mm 0.0 W/m2 CLR
02:54 -14.4 °C -16.4 °C 34520.3 hPa NW 29.8 km/h 29.8 km/h 77 % 0 mm 0.0 W/m2 CLR
02:59 -14.4 °C -16.4 °C 34520.3 hPa NW 29.8 km/h 29.8 km/h 77 % 0 mm 0.0 W/m2 CLR
03:04 -14.1 °C -16.2 °C 34520.3 hPa NW 31.1 km/h 31.1 km/h 77 % 0 mm 0.0 W/m2 CLR
03:09 -14.1 °C -16.2 °C 34520.3 hPa NW 31.1 km/h 31.1 km/h 77 % 0 mm 0.0 W/m2 CLR
03:14 -14.1 °C -16.3 °C 34520.3 hPa WNW 33.6 km/h 33.6 km/h 76 % 0 mm 0.0 W/m2 CLR
03:19 -14.1 °C -16.3 °C 34520.3 hPa NW 29.8 km/h 29.8 km/h 76 % 0 mm 0.0 W/m2 CLR
03:24 -14.1 °C -16.3 °C 34520.3 hPa WNW 26.9 km/h 26.9 km/h 76 % 0 mm 0.0 W/m2 CLR
03:29 -14.1 °C -16.3 °C 34520.3 hPa NW 23.8 km/h 23.8 km/h 76 % 0 mm 0.0 W/m2 CLR
03:34 -14.1 °C -16.3 °C 34520.3 hPa NW 26.9 km/h 26.9 km/h 76 % 0 mm 0.0 W/m2 CLR
03:39 -14.1 °C -16.3 °C 34510.1 hPa WNW 29.8 km/h 29.8 km/h 76 % 0 mm 0.0 W/m2 CLR
03:44 -13.8 °C -15.9 °C 34510.1 hPa WNW 31.1 km/h 31.1 km/h 76 % 0 mm 0.0 W/m2 CLR
03:49 -13.8 °C -15.9 °C 34510.1 hPa NW 29.8 km/h 29.8 km/h 76 % 0 mm 0.0 W/m2 CLR
03:54 -13.8 °C -16.1 °C 34510.1 hPa NW 29.8 km/h 29.8 km/h 75 % 0 mm 0.0 W/m2 CLR
03:59 -13.4 °C -15.7 °C 34510.1 hPa NW 29.8 km/h 29.8 km/h 76 % 0 mm 0.0 W/m2 CLR
04:04 -13.4 °C -15.7 °C 34496.6 hPa NW 29.8 km/h 29.8 km/h 76 % 0 mm 0.0 W/m2 CLR
04:09 -13.8 °C -15.9 °C 34496.6 hPa NW 29.8 km/h 29.8 km/h 76 % 0 mm 0.0 W/m2 CLR
04:14 -13.8 °C -15.9 °C 34496.6 hPa NW 26.9 km/h 26.9 km/h 77 % 0 mm 0.0 W/m2 CLR
04:19 -13.8 °C -15.9 °C 34496.6 hPa NW 26.9 km/h 26.9 km/h 76 % 0 mm 0.0 W/m2 CLR
04:24 -13.4 °C -15.7 °C 34496.6 hPa NW 32.8 km/h 32.8 km/h 76 % 0 mm 0.0 W/m2 CLR
04:29 -13.4 °C -15.7 °C 34496.6 hPa NW 29.8 km/h 29.8 km/h 76 % 0 mm 0.0 W/m2 CLR
04:34 -13.4 °C -15.7 °C 34496.6 hPa NW 29.8 km/h 29.8 km/h 76 % 0 mm 0.0 W/m2 CLR
04:39 -13.4 °C -15.7 °C 34496.6 hPa NW 26.9 km/h 26.9 km/h 76 % 0 mm 0.0 W/m2 CLR
04:44 -13.4 °C -15.7 °C 34496.6 hPa NW 20.9 km/h 20.9 km/h 76 % 0 mm 0.0 W/m2 CLR
04:49 -13.4 °C -15.7 °C 34496.6 hPa NW 23.8 km/h 23.8 km/h 76 % 0 mm 0.0 W/m2 CLR
04:54 -13.4 °C -15.7 °C 34496.6 hPa WNW 23.3 km/h 23.3 km/h 76 % 0 mm 0.0 W/m2 CLR
04:59 -13.4 °C -15.7 °C 34496.6 hPa WNW 26.9 km/h 26.9 km/h 76 % 0 mm 0.0 W/m2 CLR
05:04 -13.4 °C -15.6 °C 34496.6 hPa WNW 25.9 km/h 25.9 km/h 77 % 0 mm 0.0 W/m2 CLR
05:09 -13.4 °C -15.4 °C 34496.6 hPa WNW 26.9 km/h 26.9 km/h 78 % 0 mm 0.0 W/m2 CLR
05:14 -13.4 °C -15.4 °C 34496.6 hPa WNW 26.9 km/h 26.9 km/h 78 % 0 mm 0.0 W/m2 CLR
05:19 -13.4 °C -15.3 °C 34496.6 hPa NW 23.8 km/h 23.8 km/h 79 % 0 mm 0.0 W/m2 CLR
05:24 -13.4 °C -15.3 °C 34496.6 hPa NW 20.9 km/h 20.9 km/h 79 % 0 mm 0.0 W/m2 CLR
05:29 -13.4 °C -15.2 °C 34496.6 hPa NW 25.9 km/h 25.9 km/h 80 % 0 mm 0.0 W/m2 CLR
05:34 -13.4 °C -15.2 °C 34496.6 hPa WSW 26.9 km/h 26.9 km/h 80 % 0 mm 0.0 W/m2 CLR
05:39 -13.4 °C -15.2 °C 34496.6 hPa NW 20.9 km/h 20.9 km/h 80 % 0 mm 0.0 W/m2 CLR
05:44 -13.8 °C -15.6 °C 34496.6 hPa WNW 29.8 km/h 29.8 km/h 80 % 0 mm 0.0 W/m2 CLR
05:49 -13.8 °C -15.6 °C 34496.6 hPa WNW 20.9 km/h 20.9 km/h 80 % 0 mm 0.0 W/m2 CLR
05:54 -13.8 °C -15.4 °C 34510.1 hPa WNW 26.9 km/h 26.9 km/h 81 % 0 mm 0.0 W/m2 CLR
05:59 -13.8 °C -15.4 °C 34496.6 hPa WNW 12.9 km/h 12.9 km/h 82 % 0 mm 0.0 W/m2 CLR
06:04 -13.8 °C -15.3 °C 34496.6 hPa NW 12.9 km/h 12.9 km/h 83 % 0 mm 0.0 W/m2 CLR
06:09 -13.8 °C -15.2 °C 34496.6 hPa Calm     84 % 0 mm 0.0 W/m2 CLR
06:14 -13.8 °C -15.2 °C 34496.6 hPa Calm     84 % 0 mm 0.0 W/m2 CLR
06:19 -13.8 °C -15.1 °C 34496.6 hPa Calm     85 % 0 mm 0.0 W/m2 CLR
06:24 -13.8 °C -15.1 °C 34510.1 hPa Calm     85 % 0 mm 0.0 W/m2 CLR
06:29 -13.8 °C -15.1 °C 34510.1 hPa Calm     85 % 0 mm 0.0 W/m2 CLR
06:34 -13.8 °C -14.9 °C 34510.1 hPa Calm     86 % 0 mm 0.0 W/m2 CLR
06:39 -13.8 °C -14.9 °C 34510.1 hPa Calm     86 % 0 mm 0.0 W/m2 CLR
06:45 -13.8 °C -14.9 °C 34510.1 hPa Calm     86 % 0 mm 0.0 W/m2 CLR
06:50 -13.8 °C -14.9 °C 34510.1 hPa Calm     87 % 0 mm 0.0 W/m2 CLR
06:55 -14.1 °C -15.2 °C 34496.6 hPa Calm     87 % 0 mm 0.0 W/m2 CLR
07:00 -13.8 °C -14.9 °C 34496.6 hPa West 15 km/h 15 km/h 87 % 0 mm 0.0 W/m2 CLR
07:05 -13.8 °C -14.9 °C 34510.1 hPa WNW 17.9 km/h 17.9 km/h 87 % 0 mm 0.0 W/m2 CLR
07:10 -13.8 °C -14.9 °C 34510.1 hPa WNW 15 km/h 15 km/h 87 % 0 mm 0.0 W/m2 CLR
07:15 -13.8 °C -14.9 °C 34510.1 hPa WNW 9 km/h 9 km/h 87 % 0 mm 0.0 W/m2 CLR
07:20 -13.8 °C -14.9 °C 34510.1 hPa West 18.2 km/h 18.2 km/h 87 % 0 mm 0.0 W/m2 CLR
07:25 -14.1 °C -15.3 °C 34510.1 hPa WNW 11.9 km/h 11.9 km/h 86 % 0 mm 0.0 W/m2 CLR
07:30 -14.1 °C -15.3 °C 34510.1 hPa WNW 20.9 km/h 20.9 km/h 86 % 0 mm 0.0 W/m2 CLR
07:35 -14.1 °C -15.3 °C 34510.1 hPa WNW 17.9 km/h 17.9 km/h 86 % 0 mm 0.0 W/m2 CLR
07:40 -14.1 °C -15.3 °C 34510.1 hPa West 20.9 km/h 20.9 km/h 86 % 0 mm 0.0 W/m2 CLR
07:45 -14.1 °C -15.3 °C 34510.1 hPa West 26.9 km/h 26.9 km/h 86 % 0 mm 0.0 W/m2 OVC
07:50 -14.1 °C -15.3 °C 34510.1 hPa West 23.8 km/h 23.8 km/h 86 % 0 mm 0.0 W/m2 OVC
07:55 -14.1 °C -15.3 °C 34510.1 hPa West 17.9 km/h 17.9 km/h 86 % 0 mm 0.0 W/m2 OVC
08:00 -13.8 °C -14.9 °C 34510.1 hPa WNW 20.9 km/h 20.9 km/h 86 % 0 mm 0.0 W/m2 OVC
08:05 -13.8 °C -14.9 °C 34510.1 hPa West 20.9 km/h 20.9 km/h 86 % 0 mm 5.0 W/m2 OVC
08:10 -13.8 °C -14.9 °C 34510.1 hPa West 20.9 km/h 20.9 km/h 86 % 0 mm 7.0 W/m2 BKN
08:15 -14.1 °C -15.3 °C 34510.1 hPa West 6 km/h 6 km/h 86 % 0 mm 12.0 W/m2 BKN
08:20 -14.1 °C -15.4 °C 34520.3 hPa West 11.9 km/h 11.9 km/h 85 % 0 mm 16.0 W/m2 BKN
08:25 -13.8 °C -15.1 °C 34520.3 hPa West 11.9 km/h 11.9 km/h 85 % 0 mm 18.0 W/m2 BKN
08:30 -13.8 °C -15.1 °C 34520.3 hPa West 9 km/h 9 km/h 85 % 0 mm 21.0 W/m2 BKN
08:35 -14.1 °C -15.4 °C 34520.3 hPa West 23.8 km/h 23.8 km/h 84 % 0 mm 25.0 W/m2 BKN
08:40 -14.1 °C -15.4 °C 34520.3 hPa West 11.9 km/h 11.9 km/h 84 % 0 mm 30.0 W/m2 BKN
08:45 -14.1 °C -15.6 °C 34520.3 hPa West 3.1 km/h 3.1 km/h 83 % 0 mm 40.0 W/m2 BKN
08:50 -14.4 °C -15.9 °C 34520.3 hPa Calm     83 % 0 mm 56.0 W/m2 SCT
08:55 -14.4 °C -15.8 °C 34520.3 hPa Calm     84 % 0 mm 60.0 W/m2 SCT
09:00 -14.4 °C -15.9 °C 34520.3 hPa Calm     83 % 0 mm 76.0 W/m2 SCT
09:05 -14.4 °C -15.8 °C 34520.3 hPa Calm     84 % 0 mm 60.0 W/m2 FEW
09:10 -14.4 °C -15.9 °C 34520.3 hPa Calm     83 % 0 mm 88.0 W/m2 FEW
09:15 -14.4 °C -15.9 °C 34520.3 hPa Calm     83 % 0 mm 84.0 W/m2 FEW
09:20 -14.4 °C -15.9 °C 34520.3 hPa NW 23.8 km/h 23.8 km/h 83 % 0 mm 90.0 W/m2 CLR
09:25 -14.4 °C -16.2 °C 34520.3 hPa WNW 26.9 km/h 26.9 km/h 80 % 0 mm 100.0 W/m2 CLR
09:30 -14.1 °C -16.2 °C 34520.3 hPa WNW 26.9 km/h 26.9 km/h 77 % 0 mm 130.0 W/m2 CLR
09:35 -13.8 °C -16.1 °C 34520.3 hPa NW 26.9 km/h 26.9 km/h 75 % 0 mm 204.0 W/m2 CLR
09:40 -13.4 °C -15.9 °C 34520.3 hPa WNW 23.8 km/h 23.8 km/h 74 % 0 mm 223.0 W/m2 CLR
09:45 -12.8 °C -15.4 °C 34533.8 hPa WNW 11.9 km/h 11.9 km/h 73 % 0 mm 218.0 W/m2 CLR
09:50 -12.6 °C -15.1 °C 34533.8 hPa WNW 26.9 km/h 26.9 km/h 73 % 0 mm 236.0 W/m2 CLR
09:55 -11.9 °C -14.6 °C 34533.8 hPa NW 29.8 km/h 29.8 km/h 72 % 0 mm 267.0 W/m2 CLR
10:00 -11.9 °C -14.6 °C 34533.8 hPa NW 29.8 km/h 29.8 km/h 72 % 0 mm 297.0 W/m2 CLR
10:05 -11.6 °C -14.6 °C 34533.8 hPa NW 20.8 km/h 20.8 km/h 70 % 0 mm 274.0 W/m2 CLR
10:10 -11.6 °C -14.6 °C 34533.8 hPa NW 36.2 km/h 36.2 km/h 70 % 0 mm 323.0 W/m2 CLR
10:15 -11.6 °C -14.7 °C 34533.8 hPa NNW 9 km/h 9 km/h 69 % 0 mm 336.0 W/m2 CLR
10:20 -11.3 °C -14.3 °C 34544 hPa NNW 47.6 km/h 47.6 km/h 69 % 0 mm 369.0 W/m2 CLR
10:25 -11 °C -14.1 °C 34533.8 hPa WNW 35.7 km/h 35.7 km/h 69 % 0 mm 359.0 W/m2 CLR
10:30 -11 °C -14.3 °C 34544 hPa NNW 35.7 km/h 35.7 km/h 67 % 0 mm 348.0 W/m2 CLR
10:35 -11 °C -14.3 °C 34544 hPa NNW 50.7 km/h 50.7 km/h 67 % 0 mm 338.0 W/m2 CLR
10:40 -11 °C -14.3 °C 34544 hPa NW 32.8 km/h 32.8 km/h 67 % 0 mm 408.0 W/m2 CLR
10:45 -10.7 °C -14.1 °C 34544 hPa NW 44.7 km/h 44.7 km/h 66 % 0 mm 397.0 W/m2 CLR
10:50 -10.7 °C -14.1 °C 34544 hPa NW 38.8 km/h 38.8 km/h 66 % 0 mm 399.0 W/m2 CLR
10:56 -10.7 °C -14.3 °C 34544 hPa NNW 50.7 km/h 50.7 km/h 65 % 0 mm 434.0 W/m2 CLR
11:00 -10.4 °C -13.9 °C 34544 hPa North 41.7 km/h 41.7 km/h 65 % 0 mm 413.0 W/m2 CLR
11:06 -10.4 °C -13.9 °C 34544 hPa NNW 56.6 km/h 56.6 km/h 65 % 0 mm 489.0 W/m2 CLR
11:11 -10.4 °C -14.2 °C 34554.1 hPa NW 74.5 km/h 74.5 km/h 63 % 0 mm 543.0 W/m2 CLR
11:16 -10.1 °C -13.9 °C 34544 hPa NW 59.5 km/h 59.5 km/h 63 % 0 mm 434.0 W/m2 CLR
11:21 -10.4 °C -14.2 °C 34554.1 hPa NNW 68.6 km/h 68.6 km/h 63 % 0 mm 283.0 W/m2 CLR
11:26 -10.4 °C -14.1 °C 34544 hPa NW 50.7 km/h 50.7 km/h 64 % 0 mm 241.0 W/m2 CLR
11:31 -10.4 °C -14.2 °C 34544 hPa NNW 62.6 km/h 62.6 km/h 63 % 0 mm 330.0 W/m2 CLR
11:36 -10.4 °C -14.1 °C 34554.1 hPa North 44.7 km/h 44.7 km/h 64 % 0 mm 309.0 W/m2 CLR
11:41 -10.1 °C -13.8 °C 34554.1 hPa North 50.7 km/h 50.7 km/h 64 % 0 mm 548.0 W/m2 CLR
11:46 -10.1 °C -14.1 °C 34554.1 hPa North 65.5 km/h 65.5 km/h 62 % 0 mm 345.0 W/m2 CLR
11:51 -10.1 °C -14.1 °C 34554.1 hPa NW 50.7 km/h 50.7 km/h 62 % 0 mm 265.0 W/m2 CLR
11:56 -10.1 °C -14.1 °C 34554.1 hPa NW 53.6 km/h 53.6 km/h 62 % 0 mm 292.0 W/m2 CLR
12:01 -10.1 °C -13.9 °C 34554.1 hPa North 47.6 km/h 47.6 km/h 63 % 0 mm 290.0 W/m2 CLR
12:06 -10.1 °C -13.9 °C 34554.1 hPa North 44.7 km/h 44.7 km/h 63 % 0 mm 350.0 W/m2 CLR
12:11 -9.8 °C -13.6 °C 34554.1 hPa NW 50.7 km/h 50.7 km/h 63 % 0 mm 490.0 W/m2 CLR
12:16 -9.8 °C -13.6 °C 34554.1 hPa NNW 29.8 km/h 29.8 km/h 63 % 0 mm 506.0 W/m2 CLR
12:21 -9.4 °C -13.4 °C 34544 hPa North 50.7 km/h 50.7 km/h 62 % 0 mm 455.0 W/m2 CLR
12:26 -9.4 °C -13.4 °C 34554.1 hPa North 53.6 km/h 53.6 km/h 62 % 0 mm 427.0 W/m2 CLR
12:31 -9.4 °C -13.4 °C 34554.1 hPa North 53.6 km/h 53.6 km/h 62 % 0 mm 385.0 W/m2 CLR
12:36 -9.4 °C -13.4 °C 34544 hPa North 44.7 km/h 44.7 km/h 62 % 0 mm 506.0 W/m2 CLR
12:41 -9.4 °C -13.7 °C 34544 hPa NW 50.7 km/h 50.7 km/h 60 % 0 mm 548.0 W/m2 CLR
12:46 -9.4 °C -13.6 °C 34544 hPa North 50.7 km/h 50.7 km/h 61 % 0 mm 403.0 W/m2 CLR
12:51 -9.4 °C -13.7 °C 34544 hPa North 44.7 km/h 44.7 km/h 60 % 0 mm 397.0 W/m2 CLR
12:56 -9.4 °C -13.6 °C 34544 hPa NNW 38.8 km/h 38.8 km/h 61 % 0 mm 373.0 W/m2 CLR
13:01 -9.4 °C -13.6 °C 34533.8 hPa North 49.2 km/h 49.2 km/h 61 % 0 mm 366.0 W/m2 CLR
13:06 -9.4 °C -13.4 °C 34533.8 hPa North 35.7 km/h 35.7 km/h 62 % 0 mm 380.0 W/m2 CLR
13:11 -9.4 °C -13.4 °C 34533.8 hPa North 32.8 km/h 32.8 km/h 62 % 0 mm 420.0 W/m2 CLR
13:16 -9.4 °C -13.6 °C 34533.8 hPa North 50.7 km/h 50.7 km/h 61 % 0 mm 345.0 W/m2 CLR
13:21 -9.4 °C -13.4 °C 34533.8 hPa NNE 28.5 km/h 28.5 km/h 62 % 0 mm 294.0 W/m2 CLR
13:26 -9.8 °C -13.6 °C 34533.8 hPa NNW 29.8 km/h 29.8 km/h 63 % 0 mm 343.0 W/m2 CLR
13:31 -9.8 °C -13.5 °C 34533.8 hPa NE 32.8 km/h 32.8 km/h 64 % 0 mm 223.0 W/m2 CLR
13:36 -9.8 °C -13.4 °C 34533.8 hPa NNE 23.8 km/h 23.8 km/h 65 % 0 mm 186.0 W/m2 CLR
13:41 -10.1 °C -13.7 °C 34533.8 hPa North 26.9 km/h 26.9 km/h 65 % 0 mm 213.0 W/m2 CLR
13:46 -10.4 °C -13.8 °C 34533.8 hPa NW 32.8 km/h 32.8 km/h 66 % 0 mm 200.0 W/m2 CLR
13:51 -10.1 °C -13.6 °C 34533.8 hPa NNW 17.9 km/h 17.9 km/h 66 % 0 mm 339.0 W/m2 CLR
13:56 -10.1 °C -13.3 °C 34533.8 hPa North 33.6 km/h 33.6 km/h 68 % 0 mm 510.0 W/m2 CLR
14:01 -9.8 °C -13.2 °C 34533.8 hPa North 18.2 km/h 18.2 km/h 66 % 0 mm 367.0 W/m2 CLR
14:06 -9.8 °C -13.2 °C 34533.8 hPa North 35.7 km/h 35.7 km/h 66 % 0 mm 295.0 W/m2 CLR
14:11 -9.8 °C -13.4 °C 34533.8 hPa NNW 29.8 km/h 29.8 km/h 65 % 0 mm 262.0 W/m2 CLR
14:16 -9.8 °C -13.2 °C 34533.8 hPa NNW 23.8 km/h 23.8 km/h 66 % 0 mm 272.0 W/m2 CLR
14:21 -9.8 °C -13.4 °C 34533.8 hPa NNW 38.8 km/h 38.8 km/h 65 % 0 mm 279.0 W/m2 CLR
14:26 -9.8 °C -13.4 °C 34520.3 hPa NNW 29.8 km/h 29.8 km/h 65 % 0 mm 323.0 W/m2 CLR
14:31 -9.4 °C -13.1 °C 34520.3 hPa NNW 33.6 km/h 33.6 km/h 65 % 0 mm 260.0 W/m2 CLR
14:32 -9.4 °C -13.1 °C 34520.3 hPa North 38.8 km/h 38.8 km/h 65 % 0 mm 260.0 W/m2 CLR
14:37 -9.4 °C -13.3 °C 34520.3 hPa NNW 35.7 km/h 35.7 km/h 63 % 0 mm 197.0 W/m2 CLR
14:42 -9.8 °C -13.5 °C 34520.3 hPa NNW 29.8 km/h 29.8 km/h 64 % 0 mm 181.0 W/m2 CLR
14:47 -9.8 °C -13.4 °C 34520.3 hPa NNW 35.7 km/h 35.7 km/h 65 % 0 mm 181.0 W/m2 CLR
14:52 -9.8 °C -13.4 °C 34520.3 hPa NNW 29.8 km/h 29.8 km/h 65 % 0 mm 183.0 W/m2 CLR
14:57 -9.8 °C -13.1 °C 34520.3 hPa North 23.3 km/h 23.3 km/h 67 % 0 mm 197.0 W/m2 CLR
15:02 -9.8 °C -13.4 °C 34520.3 hPa North 23.8 km/h 23.8 km/h 65 % 0 mm 227.0 W/m2 CLR
15:07 -9.8 °C -13.4 °C 34520.3 hPa NNW 44.7 km/h 44.7 km/h 65 % 0 mm 204.0 W/m2 CLR
15:12 -9.8 °C -13.5 °C 34520.3 hPa NNE 20.9 km/h 20.9 km/h 64 % 0 mm 197.0 W/m2 CLR
15:17 -9.8 °C -13.4 °C 34533.8 hPa NNE 18.2 km/h 18.2 km/h 65 % 0 mm 192.0 W/m2 CLR
15:22 -9.8 °C -13.2 °C 34533.8 hPa North 3.1 km/h 3.1 km/h 66 % 0 mm 181.0 W/m2 CLR
15:27 -9.8 °C -13.4 °C 34533.8 hPa North 26.9 km/h 26.9 km/h 65 % 0 mm 179.0 W/m2 CLR
15:32 -9.8 °C -13.4 °C 34533.8 hPa NNE 29.8 km/h 29.8 km/h 65 % 0 mm 190.0 W/m2 CLR
15:37 -9.8 °C -13.4 °C 34533.8 hPa North 35.7 km/h 35.7 km/h 65 % 0 mm 183.0 W/m2 CLR
15:42 -10.1 °C -13.6 °C 34533.8 hPa North 23.8 km/h 23.8 km/h 66 % 0 mm 148.0 W/m2 CLR
15:47 -10.1 °C -13.3 °C 34533.8 hPa NE 23.3 km/h 23.3 km/h 68 % 0 mm 132.0 W/m2 CLR
15:52 -10.4 °C -13.6 °C 34533.8 hPa North 23.8 km/h 23.8 km/h 68 % 0 mm 127.0 W/m2 CLR
15:57 -10.4 °C -13.4 °C 34533.8 hPa North 15 km/h 15 km/h 69 % 0 mm 135.0 W/m2 CLR
16:02 -10.4 °C -13.4 °C 34533.8 hPa NNE 9 km/h   69 % 0 mm 91.0 W/m2 CLR
16:07 -10.4 °C -13.4 °C 34533.8 hPa Calm     69 % 0 mm 65.0 W/m2 CLR
16:12 -10.4 °C -13.4 °C 34533.8 hPa NNW 15 km/h 15 km/h 69 % 0 mm 53.0 W/m2 FEW
16:17 -10.4 °C -13.3 °C 34544 hPa North 18.2 km/h 18.2 km/h 70 % 0 mm 47.0 W/m2 SCT
16:22 -10.4 °C -13.3 °C 34544 hPa Calm     70 % 0 mm 47.0 W/m2 SCT
16:27 -10.4 °C -13.2 °C 34544 hPa Calm     71 % 0 mm 42.0 W/m2 SCT
16:32 -10.4 °C -13.1 °C 34544 hPa Calm     72 % 0 mm 37.0 W/m2 BKN
16:37 -10.7 °C -13.4 °C 34544 hPa Calm     72 % 0 mm 37.0 W/m2 BKN
16:42 -10.7 °C -13.2 °C 34554.1 hPa Calm     74 % 0 mm 39.0 W/m2 BKN
16:47 -10.7 °C -12.9 °C 34554.1 hPa Calm     76 % 0 mm 33.0 W/m2 BKN
16:52 -11 °C -13.2 °C 34554.1 hPa Calm     77 % 0 mm 65.0 W/m2 BKN
16:57 -11 °C -13.1 °C 34554.1 hPa Calm     78 % 7.62 mm 56.0 W/m2 RA
17:02 -11 °C -12.9 °C 34554.1 hPa Calm     79 % 7.62 mm 62.0 W/m2 SCT
17:03 -11 °C -12.8 °C 34554.1 hPa Calm     80 % 7.62 mm 65.0 W/m2 SCT
17:08 -11 °C -12.8 °C 34544 hPa Calm     80 % 7.62 mm 62.0 W/m2 SCT
17:13 -11 °C -12.8 °C 34544 hPa Calm     80 % 7.62 mm 39.0 W/m2 SCT
17:18 -11.3 °C -13.1 °C 34544 hPa Calm     81 % 7.62 mm 35.0 W/m2 SCT
17:23 -11.3 °C -12.9 °C 34544 hPa Calm     82 % 7.62 mm 33.0 W/m2 BKN
17:28 -11.3 °C -13.1 °C 34544 hPa Calm     81 % 7.62 mm 32.0 W/m2 BKN
17:33 -11.3 °C -13.1 °C 34544 hPa Calm     81 % 7.62 mm 30.0 W/m2 BKN
17:38 -11.3 °C -13.1 °C 34554.1 hPa Calm     81 % 7.62 mm 30.0 W/m2 BKN
17:43 -11.3 °C -12.9 °C 34554.1 hPa Calm     82 % 7.62 mm 28.0 W/m2 BKN
17:48 -11.3 °C -13.1 °C 34554.1 hPa Calm     81 % 7.62 mm 23.0 W/m2 BKN
17:53 -11.3 °C -12.9 °C 34554.1 hPa Calm     82 % 0 mm 25.0 W/m2 BKN
17:58 -11.3 °C -13.1 °C 34554.1 hPa Calm     81 % 0 mm 25.0 W/m2 BKN
18:04 -11.3 °C -13.1 °C 34554.1 hPa Calm     81 % 0 mm 21.0 W/m2 BKN
18:09 -11.3 °C -13.2 °C 34554.1 hPa Calm     80 % 0 mm 18.0 W/m2 BKN
18:14 -11.3 °C -13.2 °C 34554.1 hPa NW 9 km/h 9 km/h 79 % 0 mm 14.0 W/m2 BKN
18:19 -11.3 °C -13.4 °C 34554.1 hPa WNW 17.9 km/h 17.9 km/h 77 % 0 mm 11.0 W/m2 BKN
18:24 -11.3 °C -13.6 °C 34554.1 hPa NW 17.9 km/h 17.9 km/h 76 % 0 mm 7.0 W/m2 BKN
18:29 -11.3 °C -13.6 °C 34554.1 hPa NW 12.9 km/h 12.9 km/h 76 % 0 mm 0.0 W/m2 OVC
18:34 -11.6 °C -14 °C 34554.1 hPa NW 20.9 km/h 20.9 km/h 75 % 0 mm 0.0 W/m2 OVC
18:39 -11.6 °C -14 °C 34554.1 hPa Calm     75 % 0 mm 0.0 W/m2 OVC
18:44 -11.6 °C -14 °C 34567.7 hPa Calm     75 % 0 mm 0.0 W/m2 CLR
18:49 -11.6 °C -14 °C 34567.7 hPa Calm     75 % 0 mm 0.0 W/m2 CLR
18:54 -11.6 °C -14.1 °C 34554.1 hPa WNW 26.9 km/h 26.9 km/h 74 % 0 mm 0.0 W/m2 CLR
18:59 -11.6 °C -14.2 °C 34554.1 hPa NW 23.8 km/h 23.8 km/h 73 % 0 mm 0.0 W/m2 CLR
19:04 -11.6 °C -14.2 °C 34554.1 hPa NNW 11.9 km/h 11.9 km/h 73 % 0 mm 0.0 W/m2 CLR
19:09 -11.6 °C -14.1 °C 34554.1 hPa Calm     74 % 0 mm 0.0 W/m2 CLR
19:14 -11.6 °C -14 °C 34567.7 hPa Calm     75 % 0 mm 0.0 W/m2 CLR
19:19 -11.6 °C -13.8 °C 34567.7 hPa Calm     76 % 0 mm 0.0 W/m2 CLR
19:24 -11.6 °C -13.8 °C 34567.7 hPa Calm     76 % 0 mm 0.0 W/m2 CLR
19:29 -11.9 °C -14.2 °C 34567.7 hPa Calm     76 % 0 mm 0.0 W/m2 CLR
19:34 -11.9 °C -14.1 °C 34567.7 hPa Calm     77 % 0 mm 0.0 W/m2 CLR
19:39 -11.9 °C -14.1 °C 34567.7 hPa Calm     77 % 0 mm 0.0 W/m2 CLR
19:44 -12.2 °C -14.3 °C 34567.7 hPa Calm     77 % 0 mm 0.0 W/m2 CLR
19:49 -12.2 °C -14.3 °C 34567.7 hPa Calm     78 % 0 mm 0.0 W/m2 CLR
19:54 -12.6 °C -14.6 °C 34577.8 hPa Calm     78 % 0 mm 0.0 W/m2 CLR
19:59 -12.6 °C -14.6 °C 34577.8 hPa Calm     78 % 0 mm 0.0 W/m2 CLR
20:04 -12.6 °C -14.6 °C 34577.8 hPa Calm     78 % 0 mm 0.0 W/m2 CLR
20:09 -12.6 °C -14.4 °C 34577.8 hPa Calm     79 % 0 mm 0.0 W/m2 CLR
20:14 -12.6 °C -14.4 °C 34577.8 hPa Calm     79 % 0 mm 0.0 W/m2 CLR
20:19 -12.6 °C -14.4 °C 34577.8 hPa Calm     79 % 0 mm 0.0 W/m2 CLR
20:24 -12.6 °C -14.4 °C 34577.8 hPa Calm     79 % 0 mm 0.0 W/m2 CLR
20:29 -12.6 °C -14.4 °C 34577.8 hPa Calm     79 % 0 mm 0.0 W/m2 CLR
20:34 -12.6 °C -14.4 °C 34577.8 hPa Calm     79 % 0 mm 0.0 W/m2 CLR
20:39 -12.6 °C -14.6 °C 34591.4 hPa Calm     78 % 0 mm 0.0 W/m2 CLR
20:44 -12.6 °C -14.6 °C 34591.4 hPa Calm     78 % 0 mm 0.0 W/m2 CLR
20:49 -12.6 °C -14.6 °C 34591.4 hPa Calm     78 % 0 mm 0.0 W/m2 CLR
20:54 -12.6 °C -14.6 °C 34591.4 hPa Calm     78 % 0 mm 0.0 W/m2 CLR
20:59 -12.6 °C -14.4 °C 34591.4 hPa Calm     79 % 0 mm 0.0 W/m2 CLR
21:04 -12.6 °C -14.4 °C 34591.4 hPa Calm     79 % 0 mm 0.0 W/m2 CLR
21:09 -12.6 °C -14.4 °C 34591.4 hPa Calm     79 % 0 mm 0.0 W/m2 CLR
21:14 -12.6 °C -14.6 °C 34591.4 hPa Calm     78 % 0 mm 0.0 W/m2 CLR
21:19 -12.6 °C -14.6 °C 34591.4 hPa Calm     78 % 0 mm 0.0 W/m2 CLR
21:24 -12.6 °C -14.7 °C 34591.4 hPa Calm     77 % 0 mm 0.0 W/m2 CLR
21:29 -12.8 °C -14.9 °C 34591.4 hPa WNW 9 km/h 9 km/h 77 % 0 mm 0.0 W/m2 CLR
21:34 -12.8 °C -15.2 °C 34591.4 hPa WNW 5.1 km/h   75 % 0 mm 0.0 W/m2 CLR
21:39 -12.8 °C -15.3 °C 34591.4 hPa WNW 2.6 km/h 2.6 km/h 74 % 0 mm 0.0 W/m2 CLR
21:44 -12.8 °C -15.3 °C 34591.4 hPa WNW 3.1 km/h   74 % 0 mm 0.0 W/m2 CLR
21:49 -12.8 °C -15.4 °C 34591.4 hPa WNW 18.2 km/h 18.2 km/h 73 % 0 mm 0.0 W/m2 CLR
21:54 -12.8 °C -15.5 °C 34591.4 hPa WNW 7.7 km/h 7.7 km/h 72 % 0 mm 0.0 W/m2 CLR
21:59 -12.8 °C -15.5 °C 34591.4 hPa WNW 17.9 km/h 17.9 km/h 72 % 0 mm 0.0 W/m2 CLR
22:04 -12.8 °C -15.5 °C 34591.4 hPa NW 3.1 km/h 3.1 km/h 72 % 0 mm 0.0 W/m2 CLR
22:09 -12.8 °C -15.5 °C 34591.4 hPa NW 9 km/h 9 km/h 72 % 0 mm 0.0 W/m2 CLR
22:14 -12.6 °C -15.2 °C 34591.4 hPa NW 9 km/h 9 km/h 72 % 0 mm 0.0 W/m2 CLR
22:19 -12.8 °C -15.5 °C 34591.4 hPa NW 10.3 km/h 10.3 km/h 72 % 0 mm 0.0 W/m2 CLR
22:24 -12.8 °C -15.5 °C 34591.4 hPa NW 6 km/h 6 km/h 72 % 0 mm 0.0 W/m2 CLR
22:29 -12.8 °C -15.5 °C 34591.4 hPa Calm     72 % 0 mm 0.0 W/m2 CLR
22:34 -12.8 °C -15.5 °C 34591.4 hPa WNW 9 km/h 9 km/h 72 % 0 mm 0.0 W/m2 CLR
22:39 -12.8 °C -15.5 °C 34591.4 hPa WNW 6 km/h 6 km/h 72 % 0 mm 0.0 W/m2 CLR
22:44 -12.8 °C -15.5 °C 34591.4 hPa NW 3.1 km/h   72 % 0 mm 0.0 W/m2 CLR
22:49 -12.8 °C -15.4 °C 34591.4 hPa WNW 5.1 km/h 5.1 km/h 73 % 0 mm 0.0 W/m2 CLR
22:54 -13.2 °C -15.7 °C 34591.4 hPa WNW 9 km/h 9 km/h 73 % 0 mm 0.0 W/m2 CLR
22:59 -13.2 °C -15.7 °C 34591.4 hPa WNW 9 km/h 9 km/h 73 % 0 mm 0.0 W/m2 CLR
23:04 -13.2 °C -15.7 °C 34591.4 hPa NW 11.9 km/h 11.9 km/h 73 % 0 mm 0.0 W/m2 CLR
23:05 -13.2 °C -15.7 °C 34591.4 hPa NW 11.9 km/h 11.9 km/h 73 % 0 mm 0.0 W/m2 CLR
23:10 -13.4 °C -15.9 °C 34591.4 hPa NW 9 km/h 9 km/h 74 % 0 mm 0.0 W/m2 CLR
23:15 -13.4 °C -15.9 °C 34591.4 hPa NW 9 km/h 9 km/h 74 % 0 mm 0.0 W/m2 CLR
23:20 -13.8 °C -16.2 °C 34591.4 hPa NW 9 km/h 9 km/h 74 % 0 mm 0.0 W/m2 CLR
23:25 -13.8 °C -16.1 °C 34591.4 hPa NW 11.9 km/h 11.9 km/h 75 % 0 mm 0.0 W/m2 CLR
23:30 -13.8 °C -16.1 °C 34591.4 hPa NW 9 km/h 9.3 km/h 75 % 0 mm 0.0 W/m2 CLR
23:35 -13.8 °C -16.1 °C 34591.4 hPa NW 7.7 km/h 7.7 km/h 75 % 0 mm 0.0 W/m2 CLR
23:40 -13.8 °C -15.9 °C 34591.4 hPa NW 9 km/h 9 km/h 76 % 0 mm 0.0 W/m2 CLR
23:45 -13.8 °C -16.1 °C 34591.4 hPa NW 9 km/h 9 km/h 75 % 0 mm 0.0 W/m2 CLR
23:50 -14.1 °C -16.3 °C 34591.4 hPa WNW 9 km/h 9 km/h 76 % 0 mm 0.0 W/m2 CLR
23:55 -14.1 °C -16.3 °C 34591.4 hPa WNW 9 km/h 9 km/h 75 % 0 mm 0.0 W/m2 CLR
Lo Temps de Massalio
Compliments of Weather Underground - 1.25 mb